Collins Center, New York
Current Conditions -  °F | °C
As of 9:53 AM on Thursday 30 Oct 2014 (Local Time) from KDKK Reporting Station
Overcast Overcast  
Wind Chill: 41°   Ceiling: 3500
Heat Index: 46°   Visibility: 10mi
Dew Point: 37°   Wind: 9mph
Humidity: 71%   Direction: 340°NNW
Pressure: 30.09"   Gusts: NA
Location:  42.49°N, 78.85°W
Report Text: KDKK 301353Z AUTO 34008KT 10SM SCT026 OVC035 08/03 A3009 RMK AO2 SLP193 T00780028
Loading
Personal Weather Stations






























Interactive Weather Map
Tropical Storm Tracking
New forecast layout! Learn more

10-Day Weather Forecast

Advertisements
Track Severe Weather on mobile